sensor_id;sensor_type;location;lat;lon;timestamp;temperature;humidity
25963;DHT22;13760;52.588;13.406;2022-11-20T00:00:34;0.60;99.90
25963;DHT22;13760;52.588;13.406;2022-11-20T00:03:00;0.60;99.90
25963;DHT22;13760;52.588;13.406;2022-11-20T00:05:25;0.60;99.90
25963;DHT22;13760;52.588;13.406;2022-11-20T00:07:51;0.60;99.90
25963;DHT22;13760;52.588;13.406;2022-11-20T00:10:16;0.60;99.90
25963;DHT22;13760;52.588;13.406;2022-11-20T00:12:42;0.60;99.90
25963;DHT22;13760;52.588;13.406;2022-11-20T00:15:08;0.60;99.90
25963;DHT22;13760;52.588;13.406;2022-11-20T00:17:33;0.60;99.90
25963;DHT22;13760;52.588;13.406;2022-11-20T00:19:59;0.60;99.90
25963;DHT22;13760;52.588;13.406;2022-11-20T00:22:24;0.60;99.90
25963;DHT22;13760;52.588;13.406;2022-11-20T00:24:50;0.60;99.90
25963;DHT22;13760;52.588;13.406;2022-11-20T00:27:15;0.60;99.90
25963;DHT22;13760;52.588;13.406;2022-11-20T00:29:41;0.60;99.90
25963;DHT22;13760;52.588;13.406;2022-11-20T00:32:06;0.60;99.90
25963;DHT22;13760;52.588;13.406;2022-11-20T00:34:32;0.60;99.90
25963;DHT22;13760;52.588;13.406;2022-11-20T00:36:57;0.60;99.90
25963;DHT22;13760;52.588;13.406;2022-11-20T00:39:23;0.60;99.90
25963;DHT22;13760;52.588;13.406;2022-11-20T00:41:48;0.60;99.90
25963;DHT22;13760;52.588;13.406;2022-11-20T00:44:14;0.60;99.90
25963;DHT22;13760;52.588;13.406;2022-11-20T00:46:39;0.60;99.90
25963;DHT22;13760;52.588;13.406;2022-11-20T00:49:05;0.60;99.90
25963;DHT22;13760;52.588;13.406;2022-11-20T00:51:30;0.60;99.90
25963;DHT22;13760;52.588;13.406;2022-11-20T00:53:57;0.50;99.90
25963;DHT22;13760;52.588;13.406;2022-11-20T00:56:23;0.60;99.90
25963;DHT22;13760;52.588;13.406;2022-11-20T00:58:49;0.50;99.90
25963;DHT22;13760;52.588;13.406;2022-11-20T01:01:17;0.50;99.90
25963;DHT22;13760;52.588;13.406;2022-11-20T01:03:46;0.50;99.90
25963;DHT22;13760;52.588;13.406;2022-11-20T01:06:14;0.50;99.90
25963;DHT22;13760;52.588;13.406;2022-11-20T01:08:40;0.50;99.90
25963;DHT22;13760;52.588;13.406;2022-11-20T01:11:11;0.50;99.90
25963;DHT22;13760;52.588;13.406;2022-11-20T01:13:38;0.50;99.90
25963;DHT22;13760;52.588;13.406;2022-11-20T01:16:10;0.50;99.90
25963;DHT22;13760;52.588;13.406;2022-11-20T01:18:38;0.50;99.90
25963;DHT22;13760;52.588;13.406;2022-11-20T01:21:10;0.50;99.90
25963;DHT22;13760;52.588;13.406;2022-11-20T01:23:39;0.40;99.90
25963;DHT22;13760;52.588;13.406;2022-11-20T01:26:13;0.40;99.90
25963;DHT22;13760;52.588;13.406;2022-11-20T01:28:40;0.40;99.90
25963;DHT22;13760;52.588;13.406;2022-11-20T01:31:15;0.40;99.90
25963;DHT22;13760;52.588;13.406;2022-11-20T01:33:42;0.40;99.90
25963;DHT22;13760;52.588;13.406;2022-11-20T01:36:08;0.40;99.90
25963;DHT22;13760;52.588;13.406;2022-11-20T01:38:34;0.40;99.90
25963;DHT22;13760;52.588;13.406;2022-11-20T01:40:59;0.50;99.90
25963;DHT22;13760;52.588;13.406;2022-11-20T01:43:26;0.40;99.90
25963;DHT22;13760;52.588;13.406;2022-11-20T01:46:17;0.40;99.90
25963;DHT22;13760;52.588;13.406;2022-11-20T01:48:59;0.40;99.90
25963;DHT22;13760;52.588;13.406;2022-11-20T01:51:33;0.40;99.90
25963;DHT22;13760;52.588;13.406;2022-11-20T01:54:03;0.40;99.90
25963;DHT22;13760;52.588;13.406;2022-11-20T01:56:32;0.50;99.90
25963;DHT22;13760;52.588;13.406;2022-11-20T01:59:02;0.50;99.90
25963;DHT22;13760;52.588;13.406;2022-11-20T02:01:28;0.40;99.90
25963;DHT22;13760;52.588;13.406;2022-11-20T02:03:54;0.40;99.90
25963;DHT22;13760;52.588;13.406;2022-11-20T02:06:26;0.40;99.90
25963;DHT22;13760;52.588;13.406;2022-11-20T02:08:52;0.40;99.90
25963;DHT22;13760;52.588;13.406;2022-11-20T02:11:18;0.40;99.90
25963;DHT22;13760;52.588;13.406;2022-11-20T02:13:44;0.40;99.90
25963;DHT22;13760;52.588;13.406;2022-11-20T02:16:23;0.40;99.90
25963;DHT22;13760;52.588;13.406;2022-11-20T02:18:49;0.40;99.90
25963;DHT22;13760;52.588;13.406;2022-11-20T02:24:15;0.40;99.90
25963;DHT22;13760;52.588;13.406;2022-11-20T02:26:54;0.40;99.90
25963;DHT22;13760;52.588;13.406;2022-11-20T02:29:27;0.40;99.90
25963;DHT22;13760;52.588;13.406;2022-11-20T02:31:58;0.40;99.90
25963;DHT22;13760;52.588;13.406;2022-11-20T02:34:24;0.40;99.90
25963;DHT22;13760;52.588;13.406;2022-11-20T02:36:51;0.40;99.90
25963;DHT22;13760;52.588;13.406;2022-11-20T02:39:17;0.40;99.90
25963;DHT22;13760;52.588;13.406;2022-11-20T02:45:07;0.40;99.90
25963;DHT22;13760;52.588;13.406;2022-11-20T02:47:32;0.40;99.90
25963;DHT22;13760;52.588;13.406;2022-11-20T02:49:58;0.40;99.90
25963;DHT22;13760;52.588;13.406;2022-11-20T02:52:24;0.50;99.90
25963;DHT22;13760;52.588;13.406;2022-11-20T02:54:50;0.40;99.90
25963;DHT22;13760;52.588;13.406;2022-11-20T02:57:15;0.40;99.90
25963;DHT22;13760;52.588;13.406;2022-11-20T02:59:41;0.40;99.90
25963;DHT22;13760;52.588;13.406;2022-11-20T03:02:06;0.40;99.90
25963;DHT22;13760;52.588;13.406;2022-11-20T03:04:32;0.40;99.90
25963;DHT22;13760;52.588;13.406;2022-11-20T03:06:57;0.40;99.90
25963;DHT22;13760;52.588;13.406;2022-11-20T03:09:23;0.50;99.90
25963;DHT22;13760;52.588;13.406;2022-11-20T03:11:48;0.40;99.90
25963;DHT22;13760;52.588;13.406;2022-11-20T03:14:14;0.40;99.90
25963;DHT22;13760;52.588;13.406;2022-11-20T03:16:40;0.40;99.90
25963;DHT22;13760;52.588;13.406;2022-11-20T03:19:05;0.40;99.90
25963;DHT22;13760;52.588;13.406;2022-11-20T03:21:33;0.40;99.90
25963;DHT22;13760;52.588;13.406;2022-11-20T03:23:59;0.40;99.90
25963;DHT22;13760;52.588;13.406;2022-11-20T03:26:25;0.40;99.90
25963;DHT22;13760;52.588;13.406;2022-11-20T03:28:54;0.40;99.90
25963;DHT22;13760;52.588;13.406;2022-11-20T03:31:23;0.40;99.90
25963;DHT22;13760;52.588;13.406;2022-11-20T03:33:49;0.40;99.90
25963;DHT22;13760;52.588;13.406;2022-11-20T03:36:16;0.40;99.90
25963;DHT22;13760;52.588;13.406;2022-11-20T03:38:42;0.40;99.90
25963;DHT22;13760;52.588;13.406;2022-11-20T03:41:13;0.40;99.90
25963;DHT22;13760;52.588;13.406;2022-11-20T03:43:39;0.30;99.90
25963;DHT22;13760;52.588;13.406;2022-11-20T03:46:05;0.30;99.90
25963;DHT22;13760;52.588;13.406;2022-11-20T03:48:31;0.30;99.90
25963;DHT22;13760;52.588;13.406;2022-11-20T03:51:14;0.30;99.90
25963;DHT22;13760;52.588;13.406;2022-11-20T03:53:42;0.30;99.90
25963;DHT22;13760;52.588;13.406;2022-11-20T03:56:08;0.30;99.90
25963;DHT22;13760;52.588;13.406;2022-11-20T03:58:35;0.30;99.90
25963;DHT22;13760;52.588;13.406;2022-11-20T04:01:12;0.30;99.90
25963;DHT22;13760;52.588;13.406;2022-11-20T04:03:39;0.30;99.90
25963;DHT22;13760;52.588;13.406;2022-11-20T04:06:11;0.30;99.90
25963;DHT22;13760;52.588;13.406;2022-11-20T04:08:37;0.30;99.90
25963;DHT22;13760;52.588;13.406;2022-11-20T04:11:10;0.40;99.90
25963;DHT22;13760;52.588;13.406;2022-11-20T04:13:36;0.40;99.90
25963;DHT22;13760;52.588;13.406;2022-11-20T04:16:03;0.30;99.90
25963;DHT22;13760;52.588;13.406;2022-11-20T04:18:29;0.30;99.90
25963;DHT22;13760;52.588;13.406;2022-11-20T04:20:56;0.30;99.90
25963;DHT22;13760;52.588;13.406;2022-11-20T04:23:22;0.40;99.90
25963;DHT22;13760;52.588;13.406;2022-11-20T04:25:48;0.40;99.90
25963;DHT22;13760;52.588;13.406;2022-11-20T04:28:13;0.40;99.90
25963;DHT22;13760;52.588;13.406;2022-11-20T04:30:39;0.40;99.90
25963;DHT22;13760;52.588;13.406;2022-11-20T04:33:04;0.40;99.90
25963;DHT22;13760;52.588;13.406;2022-11-20T04:35:30;0.40;99.90
25963;DHT22;13760;52.588;13.406;2022-11-20T04:37:55;0.40;99.90
25963;DHT22;13760;52.588;13.406;2022-11-20T04:40:21;0.40;99.90
25963;DHT22;13760;52.588;13.406;2022-11-20T04:42:46;0.40;99.90
25963;DHT22;13760;52.588;13.406;2022-11-20T04:45:12;0.40;99.90
25963;DHT22;13760;52.588;13.406;2022-11-20T04:47:37;0.30;99.90
25963;DHT22;13760;52.588;13.406;2022-11-20T04:50:03;0.30;99.90
25963;DHT22;13760;52.588;13.406;2022-11-20T04:52:28;0.30;99.90
25963;DHT22;13760;52.588;13.406;2022-11-20T04:54:54;0.30;99.90
25963;DHT22;13760;52.588;13.406;2022-11-20T04:57:19;0.30;99.90
25963;DHT22;13760;52.588;13.406;2022-11-20T04:59:45;0.30;99.90
25963;DHT22;13760;52.588;13.406;2022-11-20T05:02:11;0.30;99.90
25963;DHT22;13760;52.588;13.406;2022-11-20T05:04:37;0.30;99.90
25963;DHT22;13760;52.588;13.406;2022-11-20T05:07:02;0.30;99.90
25963;DHT22;13760;52.588;13.406;2022-11-20T05:09:29;0.30;99.90
25963;DHT22;13760;52.588;13.406;2022-11-20T05:11:54;0.30;99.90
25963;DHT22;13760;52.588;13.406;2022-11-20T05:14:20;0.30;99.90
25963;DHT22;13760;52.588;13.406;2022-11-20T05:16:45;0.30;99.90
25963;DHT22;13760;52.588;13.406;2022-11-20T05:19:11;0.30;99.90
25963;DHT22;13760;52.588;13.406;2022-11-20T05:21:36;0.30;99.90
25963;DHT22;13760;52.588;13.406;2022-11-20T05:24:02;0.30;99.90
25963;DHT22;13760;52.588;13.406;2022-11-20T05:26:28;0.30;99.90
25963;DHT22;13760;52.588;13.406;2022-11-20T05:28:53;0.30;99.90
25963;DHT22;13760;52.588;13.406;2022-11-20T05:31:23;0.30;99.90
25963;DHT22;13760;52.588;13.406;2022-11-20T05:33:49;0.30;99.90
25963;DHT22;13760;52.588;13.406;2022-11-20T05:36:15;0.30;99.90
25963;DHT22;13760;52.588;13.406;2022-11-20T05:38:42;0.30;99.90
25963;DHT22;13760;52.588;13.406;2022-11-20T05:41:16;0.30;99.90
25963;DHT22;13760;52.588;13.406;2022-11-20T05:43:44;0.30;99.90
25963;DHT22;13760;52.588;13.406;2022-11-20T05:46:13;0.30;99.90
25963;DHT22;13760;52.588;13.406;2022-11-20T05:48:40;0.30;99.90
25963;DHT22;13760;52.588;13.406;2022-11-20T05:51:08;0.30;99.90
25963;DHT22;13760;52.588;13.406;2022-11-20T05:53:35;0.30;99.90
25963;DHT22;13760;52.588;13.406;2022-11-20T05:56:05;0.30;99.90
25963;DHT22;13760;52.588;13.406;2022-11-20T05:58:32;0.30;99.90
25963;DHT22;13760;52.588;13.406;2022-11-20T06:03:40;0.30;99.90
25963;DHT22;13760;52.588;13.406;2022-11-20T06:06:08;0.30;99.90
25963;DHT22;13760;52.588;13.406;2022-11-20T06:08:34;0.30;99.90
25963;DHT22;13760;52.588;13.406;2022-11-20T06:11:07;0.30;99.90
25963;DHT22;13760;52.588;13.406;2022-11-20T06:13:33;0.30;99.90
25963;DHT22;13760;52.588;13.406;2022-11-20T06:15:59;0.30;99.90
25963;DHT22;13760;52.588;13.406;2022-11-20T06:18:26;0.30;99.90
25963;DHT22;13760;52.588;13.406;2022-11-20T06:21:09;0.30;99.90
25963;DHT22;13760;52.588;13.406;2022-11-20T06:23:35;0.30;99.90
25963;DHT22;13760;52.588;13.406;2022-11-20T06:26:03;0.30;99.90
25963;DHT22;13760;52.588;13.406;2022-11-20T06:28:29;0.30;99.90
25963;DHT22;13760;52.588;13.406;2022-11-20T06:30:55;0.30;99.90
25963;DHT22;13760;52.588;13.406;2022-11-20T06:33:20;0.30;99.90
25963;DHT22;13760;52.588;13.406;2022-11-20T06:35:46;0.30;99.90
25963;DHT22;13760;52.588;13.406;2022-11-20T06:38:11;0.40;99.90
25963;DHT22;13760;52.588;13.406;2022-11-20T06:40:41;0.30;99.90
25963;DHT22;13760;52.588;13.406;2022-11-20T06:43:06;0.40;99.90
25963;DHT22;13760;52.588;13.406;2022-11-20T06:45:32;0.40;99.90
25963;DHT22;13760;52.588;13.406;2022-11-20T06:47:58;0.40;99.90
25963;DHT22;13760;52.588;13.406;2022-11-20T06:50:23;0.40;99.90
25963;DHT22;13760;52.588;13.406;2022-11-20T06:52:52;0.40;99.90
25963;DHT22;13760;52.588;13.406;2022-11-20T06:55:18;0.40;99.90
25963;DHT22;13760;52.588;13.406;2022-11-20T06:57:43;0.40;99.90
25963;DHT22;13760;52.588;13.406;2022-11-20T07:00:09;0.40;99.90
25963;DHT22;13760;52.588;13.406;2022-11-20T07:02:35;0.40;99.90
25963;DHT22;13760;52.588;13.406;2022-11-20T07:05:00;0.50;99.90
25963;DHT22;13760;52.588;13.406;2022-11-20T07:07:26;0.50;99.90
25963;DHT22;13760;52.588;13.406;2022-11-20T07:09:51;0.50;99.90
25963;DHT22;13760;52.588;13.406;2022-11-20T07:12:17;0.50;99.90
25963;DHT22;13760;52.588;13.406;2022-11-20T07:14:42;0.50;99.90
25963;DHT22;13760;52.588;13.406;2022-11-20T07:17:08;0.50;99.90
25963;DHT22;13760;52.588;13.406;2022-11-20T07:19:33;0.50;99.90
25963;DHT22;13760;52.588;13.406;2022-11-20T07:21:59;0.60;99.90
25963;DHT22;13760;52.588;13.406;2022-11-20T07:24:24;0.60;99.90
25963;DHT22;13760;52.588;13.406;2022-11-20T07:26:50;0.60;99.90
25963;DHT22;13760;52.588;13.406;2022-11-20T07:29:16;0.60;99.90
25963;DHT22;13760;52.588;13.406;2022-11-20T07:31:42;0.60;99.90
25963;DHT22;13760;52.588;13.406;2022-11-20T07:34:08;0.60;99.90
25963;DHT22;13760;52.588;13.406;2022-11-20T07:36:34;0.60;99.90
25963;DHT22;13760;52.588;13.406;2022-11-20T07:38:59;0.70;99.90
25963;DHT22;13760;52.588;13.406;2022-11-20T07:41:25;0.70;99.90
25963;DHT22;13760;52.588;13.406;2022-11-20T07:43:50;0.70;99.90
25963;DHT22;13760;52.588;13.406;2022-11-20T07:46:15;0.70;99.90
25963;DHT22;13760;52.588;13.406;2022-11-20T07:48:41;0.70;99.90
25963;DHT22;13760;52.588;13.406;2022-11-20T07:51:07;0.70;99.90
25963;DHT22;13760;52.588;13.406;2022-11-20T07:53:32;0.80;99.90
25963;DHT22;13760;52.588;13.406;2022-11-20T07:56:02;0.80;99.90
25963;DHT22;13760;52.588;13.406;2022-11-20T07:58:29;0.80;99.90
25963;DHT22;13760;52.588;13.406;2022-11-20T08:00:55;0.80;99.90
25963;DHT22;13760;52.588;13.406;2022-11-20T08:03:20;0.90;99.90
25963;DHT22;13760;52.588;13.406;2022-11-20T08:05:46;0.90;99.90
25963;DHT22;13760;52.588;13.406;2022-11-20T08:08:11;0.90;99.90
25963;DHT22;13760;52.588;13.406;2022-11-20T08:10:37;0.90;99.90
25963;DHT22;13760;52.588;13.406;2022-11-20T08:13:02;0.90;99.90
25963;DHT22;13760;52.588;13.406;2022-11-20T08:15:50;1.00;99.90
25963;DHT22;13760;52.588;13.406;2022-11-20T08:18:16;1.00;99.90
25963;DHT22;13760;52.588;13.406;2022-11-20T08:20:42;1.00;99.90
25963;DHT22;13760;52.588;13.406;2022-11-20T08:23:08;1.00;99.90
25963;DHT22;13760;52.588;13.406;2022-11-20T08:25:35;1.00;99.90
25963;DHT22;13760;52.588;13.406;2022-11-20T08:28:03;1.00;99.90
25963;DHT22;13760;52.588;13.406;2022-11-20T08:30:30;1.00;99.90
25963;DHT22;13760;52.588;13.406;2022-11-20T08:33:04;1.00;99.90
25963;DHT22;13760;52.588;13.406;2022-11-20T08:35:37;0.90;99.90
25963;DHT22;13760;52.588;13.406;2022-11-20T08:38:04;0.90;99.90
25963;DHT22;13760;52.588;13.406;2022-11-20T08:40:30;0.90;99.90
25963;DHT22;13760;52.588;13.406;2022-11-20T08:43:01;0.90;99.90
25963;DHT22;13760;52.588;13.406;2022-11-20T08:45:26;0.90;99.90
25963;DHT22;13760;52.588;13.406;2022-11-20T08:47:52;1.00;99.90
25963;DHT22;13760;52.588;13.406;2022-11-20T08:50:18;1.00;99.90
25963;DHT22;13760;52.588;13.406;2022-11-20T08:52:44;1.00;99.90
25963;DHT22;13760;52.588;13.406;2022-11-20T08:55:10;1.00;99.90
25963;DHT22;13760;52.588;13.406;2022-11-20T08:57:36;1.00;99.90
25963;DHT22;13760;52.588;13.406;2022-11-20T09:00:04;1.00;99.90
25963;DHT22;13760;52.588;13.406;2022-11-20T09:02:30;1.00;99.90
25963;DHT22;13760;52.588;13.406;2022-11-20T09:04:56;1.00;99.90
25963;DHT22;13760;52.588;13.406;2022-11-20T09:07:22;1.00;99.90
25963;DHT22;13760;52.588;13.406;2022-11-20T09:09:47;1.10;99.90
25963;DHT22;13760;52.588;13.406;2022-11-20T09:12:13;1.10;99.90
25963;DHT22;13760;52.588;13.406;2022-11-20T09:14:39;1.00;99.90
25963;DHT22;13760;52.588;13.406;2022-11-20T09:17:04;1.00;99.90
25963;DHT22;13760;52.588;13.406;2022-11-20T09:19:33;1.00;99.90
25963;DHT22;13760;52.588;13.406;2022-11-20T09:21:58;1.00;99.90
25963;DHT22;13760;52.588;13.406;2022-11-20T09:24:28;1.10;99.90
25963;DHT22;13760;52.588;13.406;2022-11-20T09:26:53;1.10;99.90
25963;DHT22;13760;52.588;13.406;2022-11-20T09:29:19;1.10;99.90
25963;DHT22;13760;52.588;13.406;2022-11-20T09:31:44;1.10;99.90
25963;DHT22;13760;52.588;13.406;2022-11-20T09:34:10;1.10;99.90
25963;DHT22;13760;52.588;13.406;2022-11-20T09:36:35;1.10;99.90
25963;DHT22;13760;52.588;13.406;2022-11-20T09:39:01;1.20;99.90
25963;DHT22;13760;52.588;13.406;2022-11-20T09:47:13;1.30;99.90
25963;DHT22;13760;52.588;13.406;2022-11-20T09:49:53;1.40;99.90
25963;DHT22;13760;52.588;13.406;2022-11-20T09:55:22;1.50;99.90
25963;DHT22;13760;52.588;13.406;2022-11-20T09:57:51;1.50;99.90
25963;DHT22;13760;52.588;13.406;2022-11-20T10:00:17;1.60;99.90
25963;DHT22;13760;52.588;13.406;2022-11-20T10:03:02;1.60;99.90
25963;DHT22;13760;52.588;13.406;2022-11-20T10:05:44;1.60;99.90
25963;DHT22;13760;52.588;13.406;2022-11-20T10:08:27;1.70;99.90
25963;DHT22;13760;52.588;13.406;2022-11-20T10:11:08;1.70;99.90
25963;DHT22;13760;52.588;13.406;2022-11-20T10:19:44;1.70;99.90
25963;DHT22;13760;52.588;13.406;2022-11-20T10:22:37;1.70;99.90
25963;DHT22;13760;52.588;13.406;2022-11-20T10:25:13;1.70;99.90
25963;DHT22;13760;52.588;13.406;2022-11-20T10:30:24;1.60;99.90
25963;DHT22;13760;52.588;13.406;2022-11-20T10:33:01;1.60;99.90
25963;DHT22;13760;52.588;13.406;2022-11-20T10:35:35;1.70;99.90
25963;DHT22;13760;52.588;13.406;2022-11-20T10:38:09;1.70;99.90
25963;DHT22;13760;52.588;13.406;2022-11-20T10:40:46;1.80;99.90
25963;DHT22;13760;52.588;13.406;2022-11-20T10:43:19;1.80;99.90
25963;DHT22;13760;52.588;13.406;2022-11-20T10:45:57;1.80;99.90
25963;DHT22;13760;52.588;13.406;2022-11-20T10:48:25;1.80;99.90
25963;DHT22;13760;52.588;13.406;2022-11-20T10:51:15;1.80;99.90
25963;DHT22;13760;52.588;13.406;2022-11-20T10:56:50;2.00;99.90
25963;DHT22;13760;52.588;13.406;2022-11-20T10:59:40;2.10;99.90
25963;DHT22;13760;52.588;13.406;2022-11-20T11:02:29;2.20;99.90
25963;DHT22;13760;52.588;13.406;2022-11-20T11:04:57;2.20;99.90
25963;DHT22;13760;52.588;13.406;2022-11-20T11:07:30;2.20;99.90
25963;DHT22;13760;52.588;13.406;2022-11-20T11:09:59;2.20;99.90
25963;DHT22;13760;52.588;13.406;2022-11-20T11:12:26;2.20;99.90
25963;DHT22;13760;52.588;13.406;2022-11-20T11:14:54;2.10;99.90
25963;DHT22;13760;52.588;13.406;2022-11-20T11:17:31;2.10;99.90
25963;DHT22;13760;52.588;13.406;2022-11-20T11:20:02;2.10;99.90
25963;DHT22;13760;52.588;13.406;2022-11-20T11:22:29;2.00;99.90
25963;DHT22;13760;52.588;13.406;2022-11-20T11:24:55;1.90;99.90
25963;DHT22;13760;52.588;13.406;2022-11-20T11:27:20;1.90;99.90
25963;DHT22;13760;52.588;13.406;2022-11-20T11:29:46;2.00;99.90
25963;DHT22;13760;52.588;13.406;2022-11-20T11:32:21;2.00;99.90
25963;DHT22;13760;52.588;13.406;2022-11-20T11:35:22;2.00;99.90
25963;DHT22;13760;52.588;13.406;2022-11-20T11:37:49;2.10;99.90
25963;DHT22;13760;52.588;13.406;2022-11-20T11:40:18;2.00;99.90
25963;DHT22;13760;52.588;13.406;2022-11-20T11:42:54;2.00;99.90
25963;DHT22;13760;52.588;13.406;2022-11-20T11:45:22;2.10;99.90
25963;DHT22;13760;52.588;13.406;2022-11-20T11:47:48;2.10;99.90
25963;DHT22;13760;52.588;13.406;2022-11-20T11:50:18;2.00;99.90
25963;DHT22;13760;52.588;13.406;2022-11-20T11:58:09;1.70;99.90
25963;DHT22;13760;52.588;13.406;2022-11-20T12:00:39;1.60;99.90
25963;DHT22;13760;52.588;13.406;2022-11-20T12:03:18;1.60;99.90
25963;DHT22;13760;52.588;13.406;2022-11-20T12:05:51;1.60;99.90
25963;DHT22;13760;52.588;13.406;2022-11-20T12:08:27;1.60;99.90
25963;DHT22;13760;52.588;13.406;2022-11-20T12:11:06;1.60;99.90
25963;DHT22;13760;52.588;13.406;2022-11-20T12:13:54;1.60;99.90
25963;DHT22;13760;52.588;13.406;2022-11-20T12:16:21;1.60;99.90
25963;DHT22;13760;52.588;13.406;2022-11-20T12:18:52;1.50;99.90
25963;DHT22;13760;52.588;13.406;2022-11-20T12:21:18;1.50;99.90
25963;DHT22;13760;52.588;13.406;2022-11-20T12:23:56;1.50;99.90
25963;DHT22;13760;52.588;13.406;2022-11-20T12:26:34;1.40;99.90
25963;DHT22;13760;52.588;13.406;2022-11-20T12:29:32;1.40;99.90
25963;DHT22;13760;52.588;13.406;2022-11-20T12:34:44;1.50;99.90
25963;DHT22;13760;52.588;13.406;2022-11-20T12:39:58;1.60;99.90
25963;DHT22;13760;52.588;13.406;2022-11-20T12:48:03;1.60;99.90
25963;DHT22;13760;52.588;13.406;2022-11-20T12:53:42;1.60;99.90
25963;DHT22;13760;52.588;13.406;2022-11-20T12:56:19;1.60;99.90
25963;DHT22;13760;52.588;13.406;2022-11-20T12:59:00;1.60;99.90
25963;DHT22;13760;52.588;13.406;2022-11-20T13:01:47;1.60;99.90
25963;DHT22;13760;52.588;13.406;2022-11-20T13:06:53;1.80;99.90
25963;DHT22;13760;52.588;13.406;2022-11-20T13:09:20;1.90;99.90
25963;DHT22;13760;52.588;13.406;2022-11-20T13:12:08;2.00;99.90
25963;DHT22;13760;52.588;13.406;2022-11-20T13:17:44;2.10;99.90
25963;DHT22;13760;52.588;13.406;2022-11-20T13:20:17;2.10;99.90
25963;DHT22;13760;52.588;13.406;2022-11-20T13:27:48;2.10;99.90
25963;DHT22;13760;52.588;13.406;2022-11-20T13:30:18;2.00;99.90
25963;DHT22;13760;52.588;13.406;2022-11-20T13:33:07;2.00;99.90
25963;DHT22;13760;52.588;13.406;2022-11-20T13:35:36;2.00;99.90
25963;DHT22;13760;52.588;13.406;2022-11-20T13:38:10;2.00;99.90
25963;DHT22;13760;52.588;13.406;2022-11-20T13:40:39;1.90;99.90
25963;DHT22;13760;52.588;13.406;2022-11-20T13:46:07;1.80;99.90
25963;DHT22;13760;52.588;13.406;2022-11-20T13:48:41;1.70;99.90
25963;DHT22;13760;52.588;13.406;2022-11-20T13:56:52;1.70;99.90
25963;DHT22;13760;52.588;13.406;2022-11-20T13:59:52;1.60;99.90
25963;DHT22;13760;52.588;13.406;2022-11-20T14:02:21;1.60;99.90
25963;DHT22;13760;52.588;13.406;2022-11-20T14:04:49;1.60;99.90
25963;DHT22;13760;52.588;13.406;2022-11-20T14:07:22;1.50;99.90
25963;DHT22;13760;52.588;13.406;2022-11-20T14:09:54;1.50;99.90
25963;DHT22;13760;52.588;13.406;2022-11-20T14:12:21;1.40;99.90
25963;DHT22;13760;52.588;13.406;2022-11-20T14:14:52;1.40;99.90
25963;DHT22;13760;52.588;13.406;2022-11-20T14:17:23;1.30;99.90
25963;DHT22;13760;52.588;13.406;2022-11-20T14:19:51;1.30;99.90
25963;DHT22;13760;52.588;13.406;2022-11-20T14:22:22;1.30;99.90
25963;DHT22;13760;52.588;13.406;2022-11-20T14:24:49;1.30;99.90
25963;DHT22;13760;52.588;13.406;2022-11-20T14:27:25;1.20;99.90
25963;DHT22;13760;52.588;13.406;2022-11-20T14:29:51;1.20;99.90
25963;DHT22;13760;52.588;13.406;2022-11-20T14:32:23;1.20;99.90
25963;DHT22;13760;52.588;13.406;2022-11-20T14:34:51;1.20;99.90
25963;DHT22;13760;52.588;13.406;2022-11-20T14:37:21;1.20;99.90
25963;DHT22;13760;52.588;13.406;2022-11-20T14:39:56;1.10;99.90
25963;DHT22;13760;52.588;13.406;2022-11-20T14:42:26;1.10;99.90
25963;DHT22;13760;52.588;13.406;2022-11-20T14:44:55;1.10;99.90
25963;DHT22;13760;52.588;13.406;2022-11-20T14:47:24;1.10;99.90
25963;DHT22;13760;52.588;13.406;2022-11-20T14:49:52;1.10;99.90
25963;DHT22;13760;52.588;13.406;2022-11-20T14:52:20;1.10;99.90
25963;DHT22;13760;52.588;13.406;2022-11-20T14:54:48;1.10;99.90
25963;DHT22;13760;52.588;13.406;2022-11-20T14:57:31;1.10;99.90
25963;DHT22;13760;52.588;13.406;2022-11-20T15:02:44;1.00;99.90
25963;DHT22;13760;52.588;13.406;2022-11-20T15:05:13;1.00;99.90
25963;DHT22;13760;52.588;13.406;2022-11-20T15:07:45;1.00;99.90
25963;DHT22;13760;52.588;13.406;2022-11-20T15:10:28;1.00;99.90
25963;DHT22;13760;52.588;13.406;2022-11-20T15:12:55;1.00;99.90
25963;DHT22;13760;52.588;13.406;2022-11-20T15:15:31;1.00;99.90
25963;DHT22;13760;52.588;13.406;2022-11-20T15:17:58;1.00;99.90
25963;DHT22;13760;52.588;13.406;2022-11-20T15:20:30;1.00;99.90
25963;DHT22;13760;52.588;13.406;2022-11-20T15:22:56;1.00;99.90
25963;DHT22;13760;52.588;13.406;2022-11-20T15:25:22;1.00;99.90
25963;DHT22;13760;52.588;13.406;2022-11-20T15:27:52;1.00;99.90
25963;DHT22;13760;52.588;13.406;2022-11-20T15:30:19;1.00;99.90
25963;DHT22;13760;52.588;13.406;2022-11-20T15:32:46;1.00;99.90
25963;DHT22;13760;52.588;13.406;2022-11-20T15:35:13;1.00;99.90
25963;DHT22;13760;52.588;13.406;2022-11-20T15:37:39;0.90;99.90
25963;DHT22;13760;52.588;13.406;2022-11-20T15:40:06;1.00;99.90
25963;DHT22;13760;52.588;13.406;2022-11-20T15:42:32;1.00;99.90
25963;DHT22;13760;52.588;13.406;2022-11-20T15:44:58;1.00;99.90
25963;DHT22;13760;52.588;13.406;2022-11-20T15:47:32;1.00;99.90
25963;DHT22;13760;52.588;13.406;2022-11-20T15:49:58;0.90;99.90
25963;DHT22;13760;52.588;13.406;2022-11-20T15:52:25;0.90;99.90
25963;DHT22;13760;52.588;13.406;2022-11-20T15:54:51;0.90;99.90
25963;DHT22;13760;52.588;13.406;2022-11-20T15:57:16;0.90;99.90
25963;DHT22;13760;52.588;13.406;2022-11-20T15:59:42;0.90;99.90
25963;DHT22;13760;52.588;13.406;2022-11-20T16:02:11;0.90;99.90
25963;DHT22;13760;52.588;13.406;2022-11-20T16:04:37;0.80;99.90
25963;DHT22;13760;52.588;13.406;2022-11-20T16:07:03;0.80;99.90
25963;DHT22;13760;52.588;13.406;2022-11-20T16:09:29;0.80;99.90
25963;DHT22;13760;52.588;13.406;2022-11-20T16:11:54;0.70;99.90
25963;DHT22;13760;52.588;13.406;2022-11-20T16:14:20;0.70;99.90
25963;DHT22;13760;52.588;13.406;2022-11-20T16:17:04;0.60;99.90
25963;DHT22;13760;52.588;13.406;2022-11-20T16:19:30;0.60;99.90
25963;DHT22;13760;52.588;13.406;2022-11-20T16:21:57;0.60;99.90
25963;DHT22;13760;52.588;13.406;2022-11-20T16:24:24;0.50;99.90
25963;DHT22;13760;52.588;13.406;2022-11-20T16:26:49;0.50;99.90
25963;DHT22;13760;52.588;13.406;2022-11-20T16:29:15;0.40;99.90
25963;DHT22;13760;52.588;13.406;2022-11-20T16:31:40;0.40;99.90
25963;DHT22;13760;52.588;13.406;2022-11-20T16:34:07;0.40;99.90
25963;DHT22;13760;52.588;13.406;2022-11-20T16:36:33;0.40;99.90
25963;DHT22;13760;52.588;13.406;2022-11-20T16:39:01;0.40;99.90
25963;DHT22;13760;52.588;13.406;2022-11-20T16:41:29;0.30;99.90
25963;DHT22;13760;52.588;13.406;2022-11-20T16:43:56;0.30;99.90
25963;DHT22;13760;52.588;13.406;2022-11-20T16:46:23;0.30;99.90
25963;DHT22;13760;52.588;13.406;2022-11-20T16:48:54;0.30;99.90
25963;DHT22;13760;52.588;13.406;2022-11-20T16:51:20;0.30;99.90